createdAt,value
2022-11-15T00:00:54.323Z,32.63
2022-11-15T00:03:39.333Z,35.73
2022-11-15T00:06:24.232Z,33.43
2022-11-15T00:09:09.278Z,36.20
2022-11-15T00:11:54.351Z,31.00
2022-11-15T00:14:39.393Z,32.97
2022-11-15T00:17:24.576Z,34.77
2022-11-15T00:20:09.996Z,36.53
2022-11-15T00:22:54.959Z,31.97
2022-11-15T00:25:39.867Z,34.03
2022-11-15T00:28:25.475Z,33.67
2022-11-15T00:31:12.698Z,31.93
2022-11-15T00:33:57.897Z,31.50
2022-11-15T00:36:42.774Z,34.57
2022-11-15T00:39:27.578Z,31.90
2022-11-15T00:42:12.454Z,31.63
2022-11-15T00:44:57.403Z,32.53
2022-11-15T00:47:44.937Z,32.33
2022-11-15T00:50:30.109Z,32.20
2022-11-15T00:53:15.647Z,30.93
2022-11-15T00:56:00.818Z,32.77
2022-11-15T00:58:45.637Z,32.63
2022-11-15T01:01:30.592Z,32.50
2022-11-15T01:04:15.903Z,29.13
2022-11-15T01:07:00.947Z,30.10
2022-11-15T01:09:45.872Z,28.90
2022-11-15T01:12:31.152Z,27.47
2022-11-15T01:15:16.305Z,28.40
2022-11-15T01:18:01.350Z,26.63
2022-11-15T01:20:46.366Z,27.47
2022-11-15T01:23:31.810Z,26.53
2022-11-15T01:26:17.495Z,24.97
2022-11-15T01:29:02.690Z,26.70
2022-11-15T01:31:47.789Z,27.20
2022-11-15T01:34:32.636Z,27.93
2022-11-15T01:37:17.636Z,31.20
2022-11-15T01:40:02.514Z,31.10
2022-11-15T01:42:47.734Z,29.63
2022-11-15T01:45:32.635Z,30.50
2022-11-15T01:48:17.659Z,30.37
2022-11-15T01:51:04.937Z,29.13
2022-11-15T01:53:52.270Z,29.53
2022-11-15T01:56:39.343Z,29.60
2022-11-15T01:59:24.225Z,27.57
2022-11-15T02:02:09.259Z,29.53
2022-11-15T02:04:54.389Z,30.80
2022-11-15T02:07:39.365Z,27.30
2022-11-15T02:10:25.695Z,27.03
2022-11-15T02:13:10.981Z,30.27
2022-11-15T02:16:03.337Z,34.00
2022-11-15T02:18:58.420Z,29.90
2022-11-15T02:21:49.156Z,29.67
2022-11-15T02:24:34.250Z,31.43
2022-11-15T02:27:31.191Z,30.73
2022-11-15T02:30:23.724Z,30.13
2022-11-15T02:33:08.595Z,33.00
2022-11-15T02:35:58.212Z,30.33
2022-11-15T02:38:59.499Z,32.80
2022-11-15T02:41:50.135Z,31.37
2022-11-15T02:44:38.421Z,30.63
2022-11-15T02:47:24.860Z,35.07
2022-11-15T02:50:10.927Z,34.70
2022-11-15T02:52:56.174Z,33.33
2022-11-15T02:55:49.796Z,31.37
2022-11-15T02:58:51.987Z,32.80
2022-11-15T03:01:56.000Z,31.77
2022-11-15T03:04:53.046Z,30.90
2022-11-15T03:08:02.232Z,29.40
2022-11-15T03:10:51.066Z,36.37
2022-11-15T03:13:35.934Z,33.87
2022-11-15T03:16:23.884Z,31.43
2022-11-15T03:19:14.456Z,34.20
2022-11-15T03:22:00.871Z,36.70
2022-11-15T03:24:47.765Z,32.90
2022-11-15T03:27:36.217Z,30.63
2022-11-15T03:30:21.192Z,35.40
2022-11-15T03:33:06.479Z,32.00
2022-11-15T03:35:52.564Z,32.63
2022-11-15T03:38:38.759Z,31.27
2022-11-15T03:41:26.960Z,33.40
2022-11-15T03:44:21.045Z,31.13
2022-11-15T03:47:15.487Z,31.17
2022-11-15T03:50:02.110Z,30.30
2022-11-15T03:52:48.260Z,33.40
2022-11-15T03:55:33.406Z,29.47
2022-11-15T03:58:18.594Z,31.07
2022-11-15T04:01:03.646Z,29.63
2022-11-15T04:03:48.966Z,31.23
2022-11-15T04:06:34.885Z,29.13
2022-11-15T04:09:19.975Z,31.60
2022-11-15T04:12:05.023Z,30.80
2022-11-15T04:15:08.069Z,31.97
2022-11-15T04:17:54.486Z,28.07
2022-11-15T04:20:58.269Z,31.47
2022-11-15T04:24:02.063Z,32.07
2022-11-15T04:26:47.260Z,31.83
2022-11-15T04:29:35.372Z,31.77
2022-11-15T04:32:20.212Z,31.47
2022-11-15T04:35:05.290Z,27.50
2022-11-15T04:37:50.687Z,33.30
2022-11-15T04:40:36.143Z,31.33
2022-11-15T04:43:20.958Z,31.50
2022-11-15T04:46:05.774Z,29.57
2022-11-15T04:48:55.427Z,30.70
2022-11-15T04:51:43.542Z,29.87
2022-11-15T04:54:28.581Z,30.33
2022-11-15T04:57:13.411Z,28.80
2022-11-15T04:59:58.258Z,29.87
2022-11-15T05:03:01.685Z,31.30
2022-11-15T05:05:46.901Z,27.00
2022-11-15T05:08:31.823Z,32.17
2022-11-15T05:11:16.733Z,31.30
2022-11-15T05:14:01.733Z,38.03
2022-11-15T05:16:46.610Z,33.30
2022-11-15T05:19:31.699Z,32.87
2022-11-15T05:22:16.550Z,33.60
2022-11-15T05:25:01.489Z,30.57
2022-11-15T05:27:46.261Z,32.77
2022-11-15T05:30:31.221Z,29.80
2022-11-15T05:33:16.093Z,31.87
2022-11-15T05:36:06.278Z,30.00
2022-11-15T05:38:51.547Z,30.13
2022-11-15T05:41:40.341Z,31.63
2022-11-15T05:44:27.266Z,28.97
2022-11-15T05:47:15.393Z,29.50
2022-11-15T05:50:00.442Z,30.33
2022-11-15T05:52:46.083Z,33.07
2022-11-15T05:55:31.567Z,34.17
2022-11-15T05:58:16.668Z,29.40
2022-11-15T06:01:01.723Z,33.00
2022-11-15T06:03:46.538Z,33.53
2022-11-15T06:06:31.309Z,32.17
2022-11-15T06:09:16.580Z,32.03
2022-11-15T06:12:01.253Z,34.27
2022-11-15T06:14:46.253Z,36.67
2022-11-15T06:17:31.199Z,33.00
2022-11-15T06:20:16.166Z,31.47
2022-11-15T06:23:03.662Z,30.60
2022-11-15T06:25:48.584Z,33.63
2022-11-15T06:28:34.054Z,33.47
2022-11-15T06:31:19.399Z,27.27
2022-11-15T06:34:04.291Z,26.37
2022-11-15T06:36:49.332Z,28.83
2022-11-15T06:39:34.534Z,33.93
2022-11-15T06:42:19.831Z,31.63
2022-11-15T06:45:04.919Z,28.77
2022-11-15T06:47:50.062Z,30.27
2022-11-15T06:50:35.012Z,31.67
2022-11-15T06:53:20.104Z,32.90
2022-11-15T06:56:06.174Z,26.73
2022-11-15T06:58:51.392Z,27.77
2022-11-15T07:01:36.603Z,31.30
2022-11-15T07:04:21.745Z,29.50
2022-11-15T07:07:06.730Z,29.10
2022-11-15T07:09:52.187Z,29.63
2022-11-15T07:12:37.024Z,30.53
2022-11-15T07:15:23.446Z,28.10
2022-11-15T07:18:08.305Z,31.10
2022-11-15T07:20:53.201Z,32.10
2022-11-15T07:23:39.269Z,34.03
2022-11-15T07:26:24.406Z,30.97
2022-11-15T07:29:09.873Z,31.70
2022-11-15T07:31:54.973Z,33.77
2022-11-15T07:34:40.247Z,31.97
2022-11-15T07:37:24.995Z,33.17
2022-11-15T07:40:10.278Z,34.37
2022-11-15T07:43:05.512Z,35.37
2022-11-15T07:45:53.463Z,30.53
2022-11-15T07:48:45.398Z,35.30
2022-11-15T07:51:31.102Z,37.13
2022-11-15T07:54:15.887Z,31.77
2022-11-15T07:57:06.686Z,31.97
2022-11-15T07:59:52.272Z,37.73
2022-11-15T08:02:37.215Z,33.17
2022-11-15T08:05:22.450Z,32.73
2022-11-15T08:08:08.577Z,34.90
2022-11-15T08:10:53.639Z,36.13
2022-11-15T08:13:38.599Z,32.53
2022-11-15T08:16:23.424Z,32.47
2022-11-15T08:19:08.349Z,31.67
2022-11-15T08:21:53.212Z,33.67
2022-11-15T08:24:39.168Z,34.83
2022-11-15T08:27:24.312Z,37.20
2022-11-15T08:30:09.291Z,31.57
2022-11-15T08:32:54.803Z,31.77
2022-11-15T08:35:40.340Z,39.20
2022-11-15T08:38:25.594Z,35.63
2022-11-15T08:41:12.838Z,32.40
2022-11-15T08:43:57.909Z,28.70
2022-11-15T08:46:43.045Z,33.17
2022-11-15T08:49:27.950Z,31.73
2022-11-15T08:52:12.800Z,33.73
2022-11-15T08:54:57.531Z,30.40
2022-11-15T08:57:42.331Z,30.43
2022-11-15T09:00:27.278Z,28.33
2022-11-15T09:03:12.685Z,31.47
2022-11-15T09:06:17.787Z,29.90
2022-11-15T09:09:03.369Z,31.23
2022-11-15T09:11:48.549Z,32.33
2022-11-15T09:14:34.200Z,28.37
2022-11-15T09:17:24.269Z,27.80
2022-11-15T09:20:10.258Z,29.87
2022-11-15T09:22:55.119Z,27.57
2022-11-15T09:25:40.013Z,26.43
2022-11-15T09:28:24.943Z,27.70
2022-11-15T09:31:10.207Z,27.40
2022-11-15T09:33:55.068Z,25.30
2022-11-15T09:36:39.943Z,26.23
2022-11-15T09:39:24.905Z,27.57
2022-11-15T09:42:11.592Z,25.20
2022-11-15T09:45:15.525Z,24.37
2022-11-15T09:48:12.667Z,29.67
2022-11-15T09:51:21.626Z,30.03
2022-11-15T09:56:46.190Z,27.37
2022-11-15T09:59:32.449Z,25.97
2022-11-15T10:02:17.695Z,24.43
2022-11-15T10:04:44.499Z,27.17
2022-11-15T10:07:13.915Z,25.43
2022-11-15T10:09:48.018Z,21.40
2022-11-15T10:12:14.931Z,22.73
2022-11-15T10:14:41.694Z,23.27
2022-11-15T10:17:23.322Z,20.30
2022-11-15T10:20:07.856Z,20.40
2022-11-15T10:22:40.143Z,19.13
2022-11-15T10:25:09.558Z,19.27
2022-11-15T10:27:36.368Z,18.67
2022-11-15T10:30:04.752Z,24.50
2022-11-15T10:32:33.945Z,22.60
2022-11-15T10:35:00.434Z,23.40
2022-11-15T10:37:30.961Z,21.97
2022-11-15T10:40:07.907Z,19.30
2022-11-15T10:42:34.409Z,17.70
2022-11-15T10:45:00.877Z,16.97
2022-11-15T10:47:39.200Z,17.63
2022-11-15T10:50:27.190Z,18.33
2022-11-15T10:52:54.145Z,19.40
2022-11-15T10:55:31.529Z,20.07
2022-11-15T10:58:20.316Z,17.57
2022-11-15T11:00:47.053Z,18.53
2022-11-15T11:03:28.634Z,15.93
2022-11-15T11:06:06.509Z,15.40
2022-11-15T11:08:33.720Z,24.97
2022-11-15T11:11:03.127Z,17.67
2022-11-15T11:13:38.135Z,16.00
2022-11-15T11:16:16.886Z,15.70
2022-11-15T11:18:46.184Z,14.07
2022-11-15T11:21:17.295Z,13.97
2022-11-15T11:23:44.175Z,13.70
2022-11-15T11:26:24.753Z,12.80
2022-11-15T11:29:09.337Z,12.03
2022-11-15T11:31:38.822Z,11.73
2022-11-15T11:34:05.274Z,11.93
2022-11-15T11:36:37.508Z,12.63
2022-11-15T11:39:10.055Z,12.07
2022-11-15T11:41:45.851Z,12.43
2022-11-15T11:44:24.532Z,11.43
2022-11-15T11:47:00.285Z,18.37
2022-11-15T11:49:39.047Z,18.63
2022-11-15T11:52:10.620Z,19.50
2022-11-15T11:54:52.219Z,21.53
2022-11-15T11:57:38.938Z,18.97
2022-11-15T12:00:13.654Z,28.37
2022-11-15T12:02:42.372Z,28.20
2022-11-15T12:05:14.313Z,17.10
2022-11-15T12:07:42.156Z,20.53
2022-11-15T12:10:08.607Z,13.93
2022-11-15T12:12:45.411Z,12.87
2022-11-15T12:15:17.889Z,13.50
2022-11-15T12:17:45.506Z,15.33
2022-11-15T12:20:25.409Z,11.93
2022-11-15T12:22:57.978Z,12.20
2022-11-15T12:25:33.478Z,12.50
2022-11-15T12:27:59.923Z,11.13
2022-11-15T12:30:28.948Z,18.80
2022-11-15T12:32:57.613Z,11.60
2022-11-15T12:35:26.360Z,11.43
2022-11-15T12:37:56.154Z,11.23
2022-11-15T12:40:28.126Z,11.40
2022-11-15T12:43:15.591Z,10.63
2022-11-15T12:45:46.129Z,11.50
2022-11-15T12:48:18.575Z,11.10
2022-11-15T12:50:54.566Z,11.10
2022-11-15T12:53:24.270Z,12.43
2022-11-15T12:56:02.997Z,9.97
2022-11-15T12:58:40.931Z,10.67
2022-11-15T13:01:08.439Z,11.23
2022-11-15T13:03:34.986Z,11.30
2022-11-15T13:06:03.814Z,10.23
2022-11-15T13:08:36.229Z,10.33
2022-11-15T13:11:22.657Z,12.37
2022-11-15T13:13:49.206Z,9.87
2022-11-15T13:16:21.144Z,11.23
2022-11-15T13:18:55.018Z,14.13
2022-11-15T13:21:43.531Z,12.23
2022-11-15T13:24:14.351Z,10.87
2022-11-15T13:26:41.234Z,11.27
2022-11-15T13:29:16.455Z,10.67
2022-11-15T13:31:43.642Z,10.87
2022-11-15T13:37:23.025Z,10.97
2022-11-15T13:39:50.172Z,11.33
2022-11-15T13:42:17.956Z,11.23
2022-11-15T13:45:05.069Z,11.07
2022-11-15T13:47:32.708Z,10.80
2022-11-15T13:49:59.875Z,11.30
2022-11-15T13:52:31.992Z,11.33
2022-11-15T13:55:00.557Z,11.77
2022-11-15T13:57:28.842Z,11.33
2022-11-15T13:59:55.320Z,10.90
2022-11-15T14:02:30.200Z,10.87
2022-11-15T14:05:16.702Z,10.43
2022-11-15T14:07:53.871Z,10.23
2022-11-15T14:10:33.961Z,10.17
2022-11-15T14:13:01.529Z,11.17
2022-11-15T14:15:33.986Z,10.50
2022-11-15T14:18:01.075Z,10.20
2022-11-15T14:20:34.554Z,10.60
2022-11-15T14:23:02.158Z,9.90
2022-11-15T14:25:29.833Z,10.30
2022-11-15T14:28:25.766Z,8.90
2022-11-15T14:30:53.769Z,9.77
2022-11-15T14:33:30.248Z,11.13
2022-11-15T14:35:58.242Z,15.60
2022-11-15T14:38:25.435Z,13.03
2022-11-15T14:40:52.022Z,10.03
2022-11-15T14:43:18.609Z,9.27
2022-11-15T14:45:45.146Z,11.13
2022-11-15T14:48:11.738Z,10.57
2022-11-15T14:50:38.531Z,10.77
2022-11-15T14:53:05.462Z,11.90
2022-11-15T14:55:37.079Z,10.60
2022-11-15T14:58:08.978Z,10.53
2022-11-15T15:00:39.563Z,8.90
2022-11-15T15:03:06.714Z,9.40
2022-11-15T15:05:38.308Z,8.90
2022-11-15T15:08:05.563Z,10.13
2022-11-15T15:10:40.173Z,11.68
2022-11-15T15:13:11.609Z,10.70
2022-11-15T15:15:38.660Z,10.10
2022-11-15T15:18:05.866Z,11.40
2022-11-15T15:20:33.021Z,10.63
2022-11-15T15:22:59.530Z,10.30
2022-11-15T15:25:29.959Z,10.30
2022-11-15T15:27:56.576Z,19.67
2022-11-15T15:30:23.738Z,17.53
2022-11-15T15:32:50.279Z,14.90
2022-11-15T15:35:17.432Z,18.70
2022-11-15T15:37:44.536Z,18.03
2022-11-15T15:40:13.601Z,19.90
2022-11-15T15:42:40.074Z,16.27
2022-11-15T15:45:06.810Z,19.43
2022-11-15T15:47:33.336Z,22.30
2022-11-15T15:49:59.811Z,22.97
2022-11-15T15:52:26.377Z,34.03
2022-11-15T15:54:52.871Z,33.50
2022-11-15T15:57:19.544Z,25.80
2022-11-15T15:59:46.115Z,30.87
2022-11-15T16:02:13.220Z,22.27
2022-11-15T16:04:40.017Z,20.93
2022-11-15T16:07:06.732Z,19.40
2022-11-15T16:09:51.766Z,16.57
2022-11-15T16:12:18.394Z,14.97
2022-11-15T16:14:44.951Z,15.37
2022-11-15T16:17:16.915Z,15.37
2022-11-15T16:19:43.431Z,16.17
2022-11-15T16:22:09.973Z,15.00
2022-11-15T16:24:36.661Z,15.07
2022-11-15T16:27:03.237Z,15.73
2022-11-15T16:29:29.775Z,13.37
2022-11-15T16:31:56.903Z,13.03
2022-11-15T16:34:23.669Z,12.30
2022-11-15T16:36:50.448Z,13.40
2022-11-15T16:39:19.436Z,11.37
2022-11-15T16:41:47.757Z,11.83
2022-11-15T16:44:14.699Z,10.77
2022-11-15T16:46:44.000Z,10.87
2022-11-15T16:49:15.163Z,10.90
2022-11-15T16:51:42.050Z,10.43
2022-11-15T16:54:08.738Z,10.83
2022-11-15T16:56:35.230Z,10.47
2022-11-15T16:59:02.093Z,10.37
2022-11-15T17:01:29.772Z,11.73
2022-11-15T17:03:56.409Z,14.63
2022-11-15T17:06:23.423Z,11.57
2022-11-15T17:08:49.925Z,12.60
2022-11-15T17:11:21.256Z,14.73
2022-11-15T17:13:49.151Z,17.10
2022-11-15T17:16:16.788Z,15.63
2022-11-15T17:18:46.760Z,20.50
2022-11-15T17:21:15.590Z,22.73
2022-11-15T17:23:42.550Z,19.00
2022-11-15T17:26:28.742Z,22.37
2022-11-15T17:28:56.721Z,19.77
2022-11-15T17:31:23.522Z,30.33
2022-11-15T17:33:50.063Z,41.23
2022-11-15T17:36:16.569Z,40.63
2022-11-15T17:38:43.227Z,36.00
2022-11-15T17:41:11.399Z,30.10
2022-11-15T17:43:38.226Z,29.07
2022-11-15T17:46:05.916Z,22.77
2022-11-15T17:48:33.154Z,19.93
2022-11-15T17:51:00.866Z,15.47
2022-11-15T17:53:32.268Z,16.33
2022-11-15T17:56:03.802Z,25.53
2022-11-15T17:58:31.331Z,26.53
2022-11-15T18:01:07.220Z,24.57
2022-11-15T18:03:35.322Z,17.20
2022-11-15T18:06:02.060Z,16.40
2022-11-15T18:08:28.692Z,15.57
2022-11-15T18:11:02.279Z,14.37
2022-11-15T18:13:29.149Z,20.37
2022-11-15T18:16:02.525Z,17.67
2022-11-15T18:18:29.632Z,16.93
2022-11-15T18:21:05.028Z,16.40
2022-11-15T18:23:32.556Z,15.03
2022-11-15T18:26:00.049Z,18.30
2022-11-15T18:28:31.097Z,16.33
2022-11-15T18:30:57.991Z,14.27
2022-11-15T18:33:24.625Z,15.87
2022-11-15T18:35:58.175Z,14.50
2022-11-15T18:38:29.556Z,15.73
2022-11-15T18:40:56.798Z,13.30
2022-11-15T18:43:23.343Z,18.05
2022-11-15T18:45:49.842Z,14.30
2022-11-15T18:48:16.345Z,14.50
2022-11-15T18:50:43.402Z,15.47
2022-11-15T18:53:09.919Z,17.80
2022-11-15T18:55:36.453Z,13.93
2022-11-15T18:58:02.937Z,15.87
2022-11-15T19:00:29.488Z,16.07
2022-11-15T19:02:56.001Z,15.13
2022-11-15T19:05:23.247Z,13.53
2022-11-15T19:07:49.792Z,13.20
2022-11-15T19:10:16.460Z,13.27
2022-11-15T19:12:43.049Z,15.60
2022-11-15T19:15:10.368Z,14.97
2022-11-15T19:17:37.010Z,17.37
2022-11-15T19:20:03.671Z,14.50
2022-11-15T19:22:30.147Z,14.73
2022-11-15T19:24:56.668Z,17.47
2022-11-15T19:27:23.200Z,19.30
2022-11-15T19:29:49.769Z,17.17
2022-11-15T19:32:16.317Z,20.13
2022-11-15T19:34:42.883Z,24.07
2022-11-15T19:37:09.387Z,20.23
2022-11-15T19:39:39.953Z,23.03
2022-11-15T19:42:07.650Z,33.10
2022-11-15T19:44:34.162Z,41.87
2022-11-15T19:47:00.639Z,35.83
2022-11-15T19:49:27.443Z,35.37
2022-11-15T19:51:53.913Z,25.00
2022-11-15T19:54:20.438Z,26.43
2022-11-15T19:56:47.090Z,23.77
2022-11-15T19:59:14.275Z,21.73
2022-11-15T20:01:42.071Z,19.80
2022-11-15T20:04:10.197Z,18.83
2022-11-15T20:06:41.017Z,16.87
2022-11-15T20:09:08.102Z,17.83
2022-11-15T20:11:34.632Z,18.13
2022-11-15T20:14:04.145Z,19.53
2022-11-15T20:16:30.770Z,18.13
2022-11-15T20:18:57.479Z,15.60
2022-11-15T20:21:24.308Z,21.37
2022-11-15T20:23:51.711Z,18.83
2022-11-15T20:26:19.171Z,18.13
2022-11-15T20:28:45.844Z,20.10
2022-11-15T20:31:12.949Z,17.57
2022-11-15T20:33:39.604Z,19.00
2022-11-15T20:36:07.156Z,18.10
2022-11-15T20:38:34.639Z,19.10
2022-11-15T20:41:01.579Z,19.20
2022-11-15T20:43:28.119Z,21.03
2022-11-15T20:45:55.291Z,21.40
2022-11-15T20:48:22.026Z,23.80
2022-11-15T20:50:48.667Z,29.10
2022-11-15T20:53:17.387Z,28.27
2022-11-15T20:55:48.005Z,26.30
2022-11-15T20:58:15.166Z,29.57
2022-11-15T21:00:43.236Z,24.90
2022-11-15T21:03:09.874Z,22.87
2022-11-15T21:05:40.413Z,25.97
2022-11-15T21:08:07.667Z,25.43
2022-11-15T21:10:53.102Z,29.67
2022-11-15T21:13:20.106Z,23.73
2022-11-15T21:15:47.161Z,24.83
2022-11-15T21:18:14.086Z,28.57
2022-11-15T21:20:40.669Z,25.23
2022-11-15T21:23:07.345Z,26.67
2022-11-15T21:25:34.107Z,24.37
2022-11-15T21:28:00.644Z,25.23
2022-11-15T21:30:27.496Z,20.60
2022-11-15T21:32:54.036Z,20.13
2022-11-15T21:35:20.501Z,24.67
2022-11-15T21:37:50.526Z,24.07
2022-11-15T21:40:19.940Z,26.37
2022-11-15T21:42:46.653Z,21.70
2022-11-15T21:45:13.182Z,25.17
2022-11-15T21:47:43.337Z,25.03
2022-11-15T21:50:12.441Z,20.67
2022-11-15T21:52:38.957Z,28.00
2022-11-15T21:55:05.707Z,25.90
2022-11-15T21:57:32.215Z,26.23
2022-11-15T22:00:17.258Z,26.27
2022-11-15T22:02:43.779Z,25.83
2022-11-15T22:05:10.332Z,29.07
2022-11-15T22:07:36.916Z,26.23
2022-11-15T22:10:03.914Z,22.40
2022-11-15T22:12:30.464Z,19.77
2022-11-15T22:14:57.252Z,22.07
2022-11-15T22:17:24.653Z,20.13
2022-11-15T22:19:52.897Z,20.90
2022-11-15T22:22:19.654Z,21.53
2022-11-15T22:24:46.096Z,22.57
2022-11-15T22:27:12.544Z,27.20
2022-11-15T22:29:39.018Z,25.97
2022-11-15T22:32:05.471Z,28.20
2022-11-15T22:34:31.874Z,32.20
2022-11-15T22:37:19.825Z,37.17
2022-11-15T22:39:44.717Z,27.60
2022-11-15T22:42:11.346Z,29.20
2022-11-15T22:44:37.748Z,25.83
2022-11-15T22:47:04.282Z,30.03
2022-11-15T22:49:30.750Z,25.37
2022-11-15T22:51:57.159Z,26.40
2022-11-15T22:54:23.687Z,24.60
2022-11-15T22:56:50.117Z,24.53
2022-11-15T22:59:16.644Z,27.97
2022-11-15T23:01:43.188Z,26.83
2022-11-15T23:04:09.646Z,25.73
2022-11-15T23:06:36.215Z,24.87
2022-11-15T23:09:02.760Z,25.50
2022-11-15T23:11:47.986Z,23.17
2022-11-15T23:14:14.501Z,26.20
2022-11-15T23:16:40.999Z,25.77
2022-11-15T23:19:08.996Z,24.73
2022-11-15T23:21:55.409Z,24.70
2022-11-15T23:24:23.081Z,26.37
2022-11-15T23:26:51.384Z,24.00
2022-11-15T23:29:18.957Z,24.47
2022-11-15T23:32:04.528Z,25.50
2022-11-15T23:34:32.017Z,27.37
2022-11-15T23:36:58.823Z,24.17
2022-11-15T23:39:25.342Z,26.63
2022-11-15T23:41:51.882Z,28.00
2022-11-15T23:44:18.291Z,25.87
2022-11-15T23:46:44.735Z,26.60
2022-11-15T23:49:11.541Z,27.60
2022-11-15T23:51:38.035Z,29.57
2022-11-15T23:54:04.702Z,28.77
2022-11-15T23:56:31.218Z,29.73
2022-11-15T23:58:58.255Z,27.07
